Time;durP1;ratioP1;P1;durP2;ratioP2;P2;SDS_P1;SDS_P2;PMS_P1;PMS_P2;Temp;Humidity;BMP_temperature;BMP_pressure;BME280_temperature;BME280_humidity;BME280_pressure;Samples;Min_cycle;Max_cycle;Signal;HPM_P1;HPM_P2
2022/11/21 00:02:03;;;;;;;1.07;0.60;;;;;;;5.37;100.00;95513.47;5056285;28;20224;-71
2022/11/21 00:04:30;;;;;;;0.60;0.50;;;;;;;5.41;100.00;95512.22;5055698;28;20674;-70
2022/11/21 00:06:57;;;;;;;0.67;0.67;;;;;;;5.31;100.00;95522.00;5064804;28;20203;-71
2022/11/21 00:09:23;;;;;;;0.53;0.47;;;;;;;5.26;100.00;95513.81;5056557;28;20224;-70
2022/11/21 00:11:51;;;;;;;0.90;0.53;;;;;;;5.30;100.00;95509.91;5064507;28;20211;-70
2022/11/21 00:14:18;;;;;;;0.60;0.57;;;;;;;5.31;100.00;95510.72;5055534;28;20727;-71
2022/11/21 00:16:45;;;;;;;1.80;0.87;;;;;;;5.29;100.00;95508.25;5057178;28;20482;-70
2022/11/21 00:19:13;;;;;;;2.40;1.00;;;;;;;5.31;100.00;95505.47;5073630;28;20216;-69
2022/11/21 00:21:39;;;;;;;0.63;0.60;;;;;;;5.22;100.00;95511.69;5071883;28;20216;-70
2022/11/21 00:24:06;;;;;;;0.63;0.63;;;;;;;5.19;100.00;95512.81;5071949;28;20211;-70
2022/11/21 00:26:33;;;;;;;0.63;0.60;;;;;;;5.22;100.00;95522.13;5056271;28;20691;-69
2022/11/21 00:28:59;;;;;;;1.03;0.73;;;;;;;5.26;100.00;95521.66;5056214;28;20224;-69
2022/11/21 00:31:26;;;;;;;0.70;0.50;;;;;;;5.22;100.00;95515.13;5056328;28;20203;-69
2022/11/21 00:33:52;;;;;;;0.73;0.70;;;;;;;5.16;100.00;95505.31;5055671;28;20205;-69
2022/11/21 00:36:20;;;;;;;0.53;0.53;;;;;;;5.20;100.00;95511.84;5054266;28;20215;-69
2022/11/21 00:38:47;;;;;;;0.57;0.53;;;;;;;5.00;100.00;95507.94;5059879;28;20216;-69
2022/11/21 00:41:13;;;;;;;0.70;0.70;;;;;;;5.06;100.00;95501.25;5059915;28;20234;-69
2022/11/21 00:43:40;;;;;;;0.63;0.63;;;;;;;5.06;100.00;95504.66;5058835;28;20203;-69
2022/11/21 00:46:06;;;;;;;1.00;0.90;;;;;;;5.12;100.00;95498.00;5059483;28;20216;-69
2022/11/21 00:48:33;;;;;;;2.97;1.00;;;;;;;5.12;100.00;95495.38;5060167;28;21333;-69
2022/11/21 00:51:00;;;;;;;1.17;1.00;;;;;;;5.18;100.00;95502.53;5066988;28;20200;-69
2022/11/21 00:53:29;;;;;;;0.53;0.53;;;;;;;5.21;100.00;95489.19;5068252;28;20222;-69
2022/11/21 00:55:55;;;;;;;0.53;0.50;;;;;;;5.16;100.00;95487.03;5070166;28;20208;-69
2022/11/21 00:58:22;;;;;;;1.60;0.87;;;;;;;5.23;100.00;95488.03;5059916;28;20224;-69
2022/11/21 01:00:48;;;;;;;1.53;0.77;;;;;;;5.28;100.00;95483.13;5059460;28;20232;-69
2022/11/21 01:03:15;;;;;;;1.27;1.07;;;;;;;5.17;100.00;95483.47;5058504;28;20214;-70
2022/11/21 01:05:41;;;;;;;0.70;0.70;;;;;;;5.26;100.00;95482.47;5059486;28;20207;-70
2022/11/21 01:08:08;;;;;;;0.90;0.70;;;;;;;5.26;100.00;95477.25;5059147;28;20220;-69
2022/11/21 01:10:36;;;;;;;0.70;0.47;;;;;;;5.32;100.00;95476.63;5059460;28;20201;-69
2022/11/21 01:13:02;;;;;;;0.90;0.90;;;;;;;5.37;100.00;95471.69;5058857;28;20210;-69
2022/11/21 01:15:29;;;;;;;1.27;1.00;;;;;;;5.35;100.00;95462.41;5059117;28;20197;-69
2022/11/21 01:17:55;;;;;;;1.10;0.90;;;;;;;5.37;100.00;95465.66;5059163;28;20225;-69
2022/11/21 01:20:22;;;;;;;0.93;0.57;;;;;;;5.33;100.00;95467.78;5059366;28;20569;-70
2022/11/21 01:22:48;;;;;;;0.50;0.50;;;;;;;5.27;100.00;95465.84;5058086;28;20251;-70
2022/11/21 01:25:15;;;;;;;0.63;0.60;;;;;;;5.35;100.00;95463.22;5059165;28;20212;-70
2022/11/21 01:27:43;;;;;;;1.40;0.93;;;;;;;5.37;100.00;95460.44;5059338;28;20224;-69
2022/11/21 01:30:10;;;;;;;1.73;0.90;;;;;;;5.25;100.00;95452.13;5058863;28;20208;-69
2022/11/21 01:32:37;;;;;;;3.50;1.30;;;;;;;5.28;100.00;95458.81;5058411;28;20196;-70
2022/11/21 01:35:04;;;;;;;2.20;1.07;;;;;;;5.25;100.00;95465.19;5064288;28;20208;-70
2022/11/21 01:37:30;;;;;;;2.47;0.73;;;;;;;5.17;100.00;95454.75;5058803;28;20204;-71
2022/11/21 01:39:56;;;;;;;3.20;1.30;;;;;;;5.27;100.00;95454.56;5066768;28;20219;-70
2022/11/21 01:42:23;;;;;;;2.47;1.27;;;;;;;5.15;100.00;95446.22;5058105;28;20220;-70
2022/11/21 01:44:53;;;;;;;1.10;0.83;;;;;;;5.19;100.00;95434.47;5066458;28;20204;-70
2022/11/21 01:47:21;;;;;;;1.57;1.07;;;;;;;5.22;100.00;95449.84;5064853;28;20206;-70
2022/11/21 01:49:48;;;;;;;0.60;0.60;;;;;;;5.21;100.00;95448.19;5078292;28;20208;-70
2022/11/21 01:52:20;;;;;;;1.70;0.83;;;;;;;5.22;100.00;95439.41;5058263;28;20203;-70
2022/11/21 01:54:51;;;;;;;5.03;0.80;;;;;;;5.25;100.00;95438.25;5058680;28;20204;-71
2022/11/21 01:57:23;;;;;;;0.90;0.73;;;;;;;5.26;100.00;95445.13;5058682;28;20211;-70
2022/11/21 01:59:56;;;;;;;1.77;1.00;;;;;;;5.26;100.00;95435.47;5058286;28;20211;-70
2022/11/21 02:02:25;;;;;;;0.80;0.70;;;;;;;5.22;100.00;95443.78;5057327;28;20224;-69
2022/11/21 02:04:53;;;;;;;1.13;0.87;;;;;;;5.27;100.00;95441.50;5057933;28;20208;-70
2022/11/21 02:07:22;;;;;;;1.60;0.70;;;;;;;5.29;100.00;95439.56;5058118;28;20216;-71
2022/11/21 02:09:54;;;;;;;1.40;1.10;;;;;;;5.31;100.00;95442.81;5057979;28;20207;-71
2022/11/21 02:12:24;;;;;;;2.73;1.70;;;;;;;5.31;100.00;95438.41;5061305;28;20196;-69
2022/11/21 02:14:54;;;;;;;0.73;0.73;;;;;;;5.27;100.00;95428.44;5061215;28;20208;-71
2022/11/21 02:17:21;;;;;;;0.60;0.60;;;;;;;5.25;100.00;95422.59;5057640;28;20204;-71
2022/11/21 02:19:53;;;;;;;1.73;1.00;;;;;;;5.38;100.00;95413.25;5057912;28;20205;-71
2022/11/21 02:22:28;;;;;;;1.10;0.97;;;;;;;5.40;100.00;95416.53;5057232;28;20366;-70
2022/11/21 02:25:05;;;;;;;1.20;0.90;;;;;;;5.42;100.00;95408.53;5057638;28;20207;-69
2022/11/21 02:27:32;;;;;;;1.03;0.77;;;;;;;5.41;100.00;95402.50;5057508;28;20961;-71
2022/11/21 02:29:58;;;;;;;0.60;0.60;;;;;;;5.39;100.00;95404.44;5057758;28;21052;-70
2022/11/21 02:32:31;;;;;;;2.57;0.90;;;;;;;5.46;100.00;95400.19;5056936;28;20211;-70
2022/11/21 02:34:58;;;;;;;2.70;1.10;;;;;;;5.35;100.00;95400.53;5055969;28;20215;-70
2022/11/21 02:37:24;;;;;;;3.20;0.93;;;;;;;5.49;100.00;95394.63;5057523;28;20200;-71
2022/11/21 02:39:51;;;;;;;0.73;0.63;;;;;;;5.51;100.00;95392.66;5057768;28;20204;-71
2022/11/21 02:42:26;;;;;;;1.50;0.90;;;;;;;5.53;100.00;95395.94;5057138;28;20234;-70
2022/11/21 02:45:01;;;;;;;1.67;0.80;;;;;;;5.56;100.00;95403.41;5057736;28;20222;-70
2022/11/21 02:47:28;;;;;;;0.83;0.80;;;;;;;5.61;100.00;95398.50;5057484;28;20200;-71
2022/11/21 02:50:01;;;;;;;1.07;0.97;;;;;;;5.65;100.00;95394.56;5060337;28;20216;-70
2022/11/21 02:52:28;;;;;;;1.87;0.80;;;;;;;5.63;100.00;95396.56;5064933;28;20188;-70
2022/11/21 02:54:54;;;;;;;1.97;0.73;;;;;;;5.60;100.00;95394.25;5057059;28;20685;-71
2022/11/21 02:57:22;;;;;;;0.90;0.80;;;;;;;5.71;100.00;95394.72;5056980;28;20389;-70
2022/11/21 02:59:49;;;;;;;1.00;0.90;;;;;;;5.64;100.00;95393.78;5057422;28;20204;-71
2022/11/21 03:02:15;;;;;;;1.97;0.80;;;;;;;5.61;100.00;95399.34;5053162;28;20239;-70
2022/11/21 03:04:42;;;;;;;0.60;0.60;;;;;;;5.60;100.00;95397.72;5057064;28;20207;-69
2022/11/21 03:07:08;;;;;;;1.30;1.00;;;;;;;5.52;100.00;95394.28;5057332;28;20949;-70
2022/11/21 03:09:35;;;;;;;1.50;0.93;;;;;;;5.51;100.00;95392.66;5058144;28;20229;-70
2022/11/21 03:12:05;;;;;;;1.57;0.73;;;;;;;5.57;100.00;95390.19;5057089;28;20196;-70
2022/11/21 03:14:34;;;;;;;0.97;0.70;;;;;;;5.39;100.00;95386.16;5056805;28;20200;-69
2022/11/21 03:17:00;;;;;;;2.40;1.43;;;;;;;5.41;100.00;95378.16;5057137;28;20207;-69
2022/11/21 03:19:27;;;;;;;0.90;0.70;;;;;;;5.25;100.00;95375.56;5056686;28;20230;-70
2022/11/21 03:21:53;;;;;;;1.63;0.77;;;;;;;5.30;100.00;95374.09;5064766;28;20223;-69
2022/11/21 03:24:20;;;;;;;1.20;0.70;;;;;;;5.34;100.00;95371.97;5056723;28;20875;-69
2022/11/21 03:26:46;;;;;;;4.73;1.23;;;;;;;5.22;100.00;95363.66;5064879;28;21013;-71
2022/11/21 03:29:13;;;;;;;0.60;0.60;;;;;;;5.17;100.00;95362.53;5057184;28;20223;-69
2022/11/21 03:31:41;;;;;;;1.80;0.70;;;;;;;5.23;100.00;95352.25;5056751;28;20736;-69
2022/11/21 03:34:08;;;;;;;4.33;0.70;;;;;;;5.22;100.00;95355.00;5055868;28;20676;-70
2022/11/21 03:36:34;;;;;;;1.80;0.90;;;;;;;5.18;100.00;95353.69;5057466;28;20353;-69
2022/11/21 03:39:01;;;;;;;3.03;1.13;;;;;;;5.28;100.00;95354.34;5057014;28;20230;-70
2022/11/21 03:41:30;;;;;;;0.87;0.80;;;;;;;5.17;100.00;95352.09;5057249;28;20206;-69
2022/11/21 03:43:58;;;;;;;4.27;1.37;;;;;;;5.14;100.00;95352.41;5056114;28;20204;-69
2022/11/21 03:46:25;;;;;;;0.93;0.77;;;;;;;5.14;100.00;95342.78;5056784;28;20215;-70
2022/11/21 03:48:53;;;;;;;0.70;0.63;;;;;;;5.17;100.00;95328.59;5056980;28;20238;-72
2022/11/21 03:51:20;;;;;;;1.13;1.00;;;;;;;4.96;100.00;95334.34;5056754;28;20787;-72
2022/11/21 03:53:47;;;;;;;2.70;0.87;;;;;;;5.10;100.00;95341.47;5059787;28;20215;-71
2022/11/21 03:56:13;;;;;;;2.27;0.97;;;;;;;5.17;100.00;95334.63;5056844;28;20560;-70
2022/11/21 03:58:40;;;;;;;2.13;1.03;;;;;;;5.15;100.00;95323.50;5055499;28;20235;-72
2022/11/21 04:01:07;;;;;;;0.97;0.57;;;;;;;5.15;100.00;95333.16;5058636;28;20828;-70
2022/11/21 04:03:33;;;;;;;1.60;1.10;;;;;;;5.12;100.00;95336.09;5066315;28;20220;-71
2022/11/21 04:06:01;;;;;;;1.23;0.90;;;;;;;5.13;100.00;95330.72;5066781;28;20218;-69
2022/11/21 04:08:28;;;;;;;4.43;1.20;;;;;;;5.13;100.00;95329.88;5070076;28;20750;-71
2022/11/21 04:10:55;;;;;;;6.97;0.97;;;;;;;5.22;100.00;95344.56;5057743;28;20211;-70
2022/11/21 04:13:22;;;;;;;1.43;0.97;;;;;;;5.22;100.00;95340.16;5070283;28;20207;-69
2022/11/21 04:15:48;;;;;;;0.60;0.53;;;;;;;5.17;100.00;95345.06;5079365;28;20199;-70
2022/11/21 04:18:15;;;;;;;4.00;1.13;;;;;;;5.20;100.00;95341.31;5069051;28;20224;-70
2022/11/21 04:20:42;;;;;;;1.10;0.70;;;;;;;5.17;100.00;95345.06;5060385;28;20197;-70
2022/11/21 04:23:10;;;;;;;1.20;0.70;;;;;;;5.16;100.00;95348.66;5059480;28;20234;-71
2022/11/21 04:25:37;;;;;;;1.70;0.60;;;;;;;5.15;100.00;95341.78;5060295;28;20204;-69
2022/11/21 04:28:04;;;;;;;1.40;0.93;;;;;;;5.09;100.00;95342.47;5068998;28;20798;-70
2022/11/21 04:30:32;;;;;;;0.83;0.60;;;;;;;5.19;100.00;95345.69;5078667;28;20200;-69
2022/11/21 04:32:59;;;;;;;0.60;0.60;;;;;;;5.06;100.00;95334.94;5074519;28;20203;-70
2022/11/21 04:35:26;;;;;;;2.13;1.00;;;;;;;5.10;100.00;95325.00;5056955;28;20208;-70
2022/11/21 04:37:53;;;;;;;1.90;1.03;;;;;;;5.14;100.00;95327.13;5059738;28;20220;-69
2022/11/21 04:40:21;;;;;;;0.80;0.60;;;;;;;5.25;100.00;95328.56;5060103;28;20196;-70
2022/11/21 04:42:48;;;;;;;3.53;0.80;;;;;;;5.17;100.00;95334.63;5059370;28;20227;-70
2022/11/21 04:45:15;;;;;;;0.67;0.50;;;;;;;5.17;100.00;95331.22;5059627;28;20200;-70
2022/11/21 04:47:43;;;;;;;3.03;0.50;;;;;;;5.12;100.00;95336.91;5059339;28;21138;-71
2022/11/21 04:50:12;;;;;;;0.73;0.73;;;;;;;5.14;100.00;95332.34;5059715;28;21292;-70
2022/11/21 04:52:38;;;;;;;0.50;0.43;;;;;;;5.14;100.00;95340.19;5059236;28;20283;-70
2022/11/21 04:55:08;;;;;;;2.80;1.53;;;;;;;5.14;100.00;95339.34;5059467;28;20216;-70
2022/11/21 04:57:36;;;;;;;0.73;0.67;;;;;;;5.12;100.00;95339.53;5059485;28;20207;-71
2022/11/21 05:00:02;;;;;;;0.57;0.57;;;;;;;5.16;100.00;95343.44;5067678;28;20211;-70
2022/11/21 05:02:29;;;;;;;0.50;0.50;;;;;;;5.09;100.00;95346.88;5075724;28;20222;-71
2022/11/21 05:04:55;;;;;;;1.40;0.60;;;;;;;5.07;100.00;95330.56;5062273;28;20212;-69
2022/11/21 05:07:22;;;;;;;0.97;0.60;;;;;;;5.01;100.00;95332.03;5067413;28;20550;-72
2022/11/21 05:09:48;;;;;;;0.40;0.40;;;;;;;5.09;100.00;95323.38;5059330;28;20211;-70
2022/11/21 05:15:00;;;;;;;2.57;0.63;;;;;;;5.18;100.00;95317.97;5059194;28;20211;-70
2022/11/21 05:17:27;;;;;;;0.43;0.40;;;;;;;5.06;100.00;95321.09;5066916;28;20201;-70
2022/11/21 05:19:54;;;;;;;1.10;0.93;;;;;;;5.08;100.00;95327.78;5058993;28;20211;-70
2022/11/21 05:22:21;;;;;;;2.53;0.60;;;;;;;5.03;100.00;95327.47;5065630;28;20719;-70
2022/11/21 05:24:47;;;;;;;1.20;0.80;;;;;;;5.02;100.00;95331.03;5058705;28;20213;-70
2022/11/21 05:27:14;;;;;;;0.80;0.80;;;;;;;5.11;100.00;95327.44;5058923;28;20288;-70
2022/11/21 05:29:40;;;;;;;0.63;0.63;;;;;;;5.09;100.00;95334.66;5059340;28;20228;-70
2022/11/21 05:32:08;;;;;;;1.47;0.87;;;;;;;5.09;100.00;95332.03;5058498;28;20203;-69
2022/11/21 05:34:35;;;;;;;0.80;0.80;;;;;;;5.02;100.00;95338.88;5054521;28;20203;-69
2022/11/21 05:37:01;;;;;;;1.07;0.90;;;;;;;5.05;100.00;95335.13;5059724;28;20215;-70
2022/11/21 05:39:28;;;;;;;3.90;0.83;;;;;;;5.03;100.00;95331.88;5058719;28;20223;-70
2022/11/21 05:41:54;;;;;;;1.17;1.03;;;;;;;4.92;100.00;95337.44;5058378;28;20218;-69
2022/11/21 05:44:20;;;;;;;3.43;0.80;;;;;;;4.95;100.00;95331.88;5058700;28;20200;-70
2022/11/21 05:46:47;;;;;;;0.50;0.50;;;;;;;4.88;100.00;95328.28;5058544;28;20242;-70
2022/11/21 05:49:15;;;;;;;1.10;0.80;;;;;;;5.01;100.00;95337.25;5058072;28;20224;-69
2022/11/21 05:51:41;;;;;;;1.10;1.00;;;;;;;4.88;100.00;95343.97;5066462;28;20204;-70
2022/11/21 05:54:08;;;;;;;2.77;0.70;;;;;;;4.92;100.00;95348.66;5058113;28;20211;-71
2022/11/21 05:56:35;;;;;;;0.93;0.73;;;;;;;4.92;100.00;95342.66;5058055;28;20573;-70
2022/11/21 05:59:01;;;;;;;0.53;0.53;;;;;;;4.85;100.00;95342.50;5058638;28;20231;-71
2022/11/21 06:04:12;;;;;;;0.67;0.67;;;;;;;4.81;100.00;95347.38;5057495;28;20702;-69
2022/11/21 06:06:40;;;;;;;1.30;0.90;;;;;;;4.98;100.00;95348.03;5058797;28;20219;-72
2022/11/21 06:09:07;;;;;;;1.23;0.60;;;;;;;4.81;100.00;95355.22;5058036;28;20344;-70
2022/11/21 06:11:33;;;;;;;1.20;0.80;;;;;;;4.74;100.00;95351.63;5058348;28;20207;-71
2022/11/21 06:14:00;;;;;;;1.40;0.50;;;;;;;4.65;100.00;95350.81;5076315;28;20203;-70
2022/11/21 06:16:26;;;;;;;0.50;0.50;;;;;;;4.59;100.00;95351.44;5075390;28;20789;-70
2022/11/21 06:18:53;;;;;;;0.63;0.60;;;;;;;4.64;100.00;95345.75;5068421;28;20252;-70
2022/11/21 06:21:21;;;;;;;1.40;0.80;;;;;;;4.55;100.00;95349.34;5060389;28;20696;-70
2022/11/21 06:23:51;;;;;;;1.07;0.70;;;;;;;4.68;100.00;95352.28;5066480;28;20711;-70
2022/11/21 06:26:20;;;;;;;5.50;1.10;;;;;;;4.65;100.00;95352.63;5066182;28;20199;-72
2022/11/21 06:28:46;;;;;;;0.93;0.63;;;;;;;4.59;100.00;95356.66;5064805;28;21210;-72
2022/11/21 06:31:15;;;;;;;0.40;0.40;;;;;;;4.50;100.00;95352.41;5064851;28;20200;-71
2022/11/21 06:33:42;;;;;;;0.73;0.60;;;;;;;4.58;100.00;95359.44;5062681;28;20202;-70
2022/11/21 06:36:11;;;;;;;0.63;0.60;;;;;;;4.58;100.00;95355.06;5059403;28;20216;-70
2022/11/21 06:38:38;;;;;;;1.83;1.03;;;;;;;4.48;100.00;95358.78;5066312;28;21128;-70
2022/11/21 06:41:07;;;;;;;2.40;1.07;;;;;;;4.58;100.00;95354.22;5067181;28;20243;-70
2022/11/21 06:43:34;;;;;;;0.83;0.80;;;;;;;4.49;100.00;95355.19;5057128;28;20221;-70
2022/11/21 06:46:02;;;;;;;0.90;0.50;;;;;;;4.44;100.00;95366.13;5055978;28;20943;-70
2022/11/21 06:48:28;;;;;;;0.40;0.40;;;;;;;4.41;100.00;95376.06;5057470;28;20382;-70
2022/11/21 06:50:55;;;;;;;0.77;0.47;;;;;;;4.53;100.00;95383.41;5063864;28;20698;-68
2022/11/21 06:53:21;;;;;;;0.43;0.43;;;;;;;4.55;100.00;95385.88;5057048;28;20192;-69
2022/11/21 06:55:48;;;;;;;0.60;0.60;;;;;;;4.60;100.00;95375.75;5057003;28;20696;-69
2022/11/21 06:58:16;;;;;;;0.40;0.40;;;;;;;4.66;100.00;95382.91;5065852;28;20787;-69
2022/11/21 07:00:43;;;;;;;0.50;0.50;;;;;;;4.56;100.00;95382.28;5066252;28;20200;-70
2022/11/21 07:03:09;;;;;;;0.60;0.60;;;;;;;4.53;100.00;95393.03;5066061;28;20216;-70
2022/11/21 07:05:36;;;;;;;0.53;0.53;;;;;;;4.53;100.00;95393.03;5066059;28;20585;-70
2022/11/21 07:08:03;;;;;;;0.87;0.70;;;;;;;4.66;100.00;95377.69;5065110;28;20242;-70
2022/11/21 07:10:30;;;;;;;0.30;0.30;;;;;;;4.71;100.00;95393.69;5066157;28;20194;-69
2022/11/21 07:15:43;;;;;;;1.23;0.60;;;;;;;4.81;100.00;95395.16;5066239;28;20215;-70
2022/11/21 07:18:10;;;;;;;1.07;0.80;;;;;;;4.76;100.00;95389.63;5058616;28;20600;-70
2022/11/21 07:20:36;;;;;;;0.50;0.50;;;;;;;4.78;100.00;95402.53;5065506;28;20204;-70
2022/11/21 07:23:03;;;;;;;0.40;0.40;;;;;;;4.81;100.00;95400.38;5067011;28;20220;-70
2022/11/21 07:25:29;;;;;;;0.57;0.57;;;;;;;4.95;100.00;95397.13;5066271;28;20212;-69
2022/11/21 07:27:58;;;;;;;0.80;0.63;;;;;;;5.05;100.00;95395.16;5062930;28;21192;-70
2022/11/21 07:30:25;;;;;;;2.23;0.40;;;;;;;5.11;100.00;95392.72;5067070;28;20207;-70
2022/11/21 07:32:56;;;;;;;0.70;0.67;;;;;;;5.15;100.00;95396.63;5056685;28;20204;-69
2022/11/21 07:35:23;;;;;;;0.37;0.37;;;;;;;5.08;100.00;95406.09;5056759;28;20754;-69
2022/11/21 07:37:49;;;;;;;0.43;0.43;;;;;;;5.01;100.00;95409.53;5056365;28;20228;-70
2022/11/21 07:40:16;;;;;;;0.60;0.60;;;;;;;5.09;100.00;95402.53;5056585;28;20205;-70
2022/11/21 07:42:42;;;;;;;0.50;0.50;;;;;;;5.11;100.00;95403.16;5056007;28;20227;-70
2022/11/21 07:45:10;;;;;;;0.73;0.50;;;;;;;5.26;100.00;95406.75;5056803;28;20204;-70
2022/11/21 07:47:37;;;;;;;1.37;0.90;;;;;;;5.16;100.00;95408.72;5064336;28;20579;-69
2022/11/21 07:50:06;;;;;;;1.87;0.53;;;;;;;5.26;100.00;95408.56;5060650;28;20204;-70
2022/11/21 07:52:33;;;;;;;0.43;0.43;;;;;;;5.12;100.00;95401.38;5065687;28;20203;-70
2022/11/21 07:55:01;;;;;;;1.10;0.70;;;;;;;5.10;100.00;95409.34;5060709;28;20204;-70
2022/11/21 07:57:28;;;;;;;1.10;1.00;;;;;;;5.15;100.00;95401.84;5063049;28;20249;-69
2022/11/21 07:59:55;;;;;;;0.40;0.40;;;;;;;5.11;100.00;95411.00;5067015;28;20200;-70
2022/11/21 08:02:23;;;;;;;3.03;0.60;;;;;;;5.29;100.00;95403.78;5068274;28;20214;-70
2022/11/21 08:04:50;;;;;;;1.33;0.83;;;;;;;5.33;100.00;95407.69;5058819;28;20227;-70
2022/11/21 08:07:19;;;;;;;3.57;0.93;;;;;;;5.44;100.00;95407.38;5056359;28;20204;-70
2022/11/21 08:09:46;;;;;;;0.83;0.80;;;;;;;5.39;100.00;95401.81;5064834;28;20208;-70
2022/11/21 08:12:13;;;;;;;1.83;0.90;;;;;;;5.47;100.00;95410.47;5059073;28;20672;-70
2022/11/21 08:14:40;;;;;;;3.93;1.00;;;;;;;5.65;100.00;95405.03;5058574;28;20207;-70
2022/11/21 08:17:08;;;;;;;0.60;0.60;;;;;;;5.55;100.00;95394.78;5059365;28;20915;-70
2022/11/21 08:19:35;;;;;;;0.90;0.60;;;;;;;5.66;100.00;95390.97;5058802;28;20223;-70
2022/11/21 08:22:01;;;;;;;0.83;0.63;;;;;;;5.76;100.00;95392.44;5060375;28;20216;-70
2022/11/21 08:24:29;;;;;;;1.37;1.00;;;;;;;5.88;100.00;95393.75;5059507;28;21094;-70
2022/11/21 08:26:55;;;;;;;2.00;0.80;;;;;;;5.83;100.00;95406.50;5061399;28;20209;-70
2022/11/21 08:29:22;;;;;;;1.50;0.80;;;;;;;5.80;100.00;95412.03;5058604;28;20220;-70
2022/11/21 08:31:48;;;;;;;0.60;0.60;;;;;;;5.76;100.00;95409.94;5067667;28;20204;-70
2022/11/21 08:34:15;;;;;;;3.80;1.00;;;;;;;5.73;100.00;95412.88;5067604;28;20217;-70
2022/11/21 08:36:41;;;;;;;1.17;0.70;;;;;;;5.89;100.00;95416.25;5074005;28;20686;-70
2022/11/21 08:39:08;;;;;;;2.73;0.90;;;;;;;5.96;100.00;95413.78;5060005;28;20236;-70
2022/11/21 08:44:21;;;;;;;1.70;0.67;;;;;;;6.15;100.00;95401.94;5057403;28;20223;-70
2022/11/21 08:46:48;;;;;;;0.73;0.50;;;;;;;6.13;100.00;95406.50;5057530;28;20205;-70
2022/11/21 08:49:14;;;;;;;1.27;0.80;;;;;;;6.03;100.00;95399.06;5057197;28;20719;-70
2022/11/21 08:51:41;;;;;;;0.60;0.60;;;;;;;5.97;100.00;95390.09;5058301;28;20301;-70
2022/11/21 08:54:09;;;;;;;0.73;0.73;;;;;;;6.03;100.00;95396.44;5057533;28;20556;-70
2022/11/21 08:56:37;;;;;;;3.00;0.87;;;;;;;6.25;100.00;95388.66;5057906;28;20207;-70
2022/11/21 08:59:03;;;;;;;1.97;0.80;;;;;;;6.18;100.00;95393.75;5058113;28;20234;-70
2022/11/21 09:01:30;;;;;;;0.60;0.60;;;;;;;6.19;100.00;95397.19;5057844;28;20200;-70
2022/11/21 09:03:57;;;;;;;2.17;1.00;;;;;;;6.10;100.00;95396.41;5057659;28;20250;-70
2022/11/21 09:06:23;;;;;;;1.47;0.90;;;;;;;6.07;100.00;95390.69;5064105;28;20214;-70
2022/11/21 09:08:50;;;;;;;4.67;1.00;;;;;;;5.98;100.00;95385.69;5058462;28;20225;-70
2022/11/21 09:11:16;;;;;;;1.60;0.70;;;;;;;6.08;100.00;95371.41;5058362;28;20442;-70
2022/11/21 09:18:01;;;;;;;0.63;0.63;;;;;;;6.27;100.00;95365.75;5057864;28;20221;-70
2022/11/21 09:19:11;;;;;;;0.50;0.50;;;;;;;6.41;100.00;95376.28;5034666;28;20223;-70
2022/11/21 09:21:38;;;;;;;3.60;1.17;;;;;;;6.55;100.00;95375.56;5058831;28;20212;-70
2022/11/21 09:24:04;;;;;;;0.97;0.80;;;;;;;6.62;100.00;95376.50;5057913;28;20700;-70
2022/11/21 09:26:31;;;;;;;3.03;1.00;;;;;;;6.56;100.00;95371.97;5057907;28;20205;-70
2022/11/21 09:28:59;;;;;;;2.33;1.00;;;;;;;6.83;100.00;95381.91;5058444;28;20282;-70
2022/11/21 09:31:25;;;;;;;6.30;1.67;;;;;;;6.82;100.00;95373.25;5058424;28;20208;-70
2022/11/21 09:33:52;;;;;;;2.97;1.20;;;;;;;6.91;100.00;95366.97;5061823;28;20540;-70
2022/11/21 09:36:18;;;;;;;5.07;1.13;;;;;;;6.80;100.00;95361.31;5057877;28;20219;-70
2022/11/21 09:38:45;;;;;;;2.63;0.90;;;;;;;6.79;100.00;95360.50;5058754;28;20232;-70
2022/11/21 09:44:16;;;;;;;2.67;1.47;;;;;;;7.24;100.00;95362.25;5057127;28;20251;-70
2022/11/21 09:46:46;;;;;;;1.50;1.07;;;;;;;7.10;100.00;95355.16;5059687;28;20210;-70
2022/11/21 09:49:14;;;;;;;2.80;1.50;;;;;;;7.32;100.00;95349.91;5058204;28;20706;-70
2022/11/21 09:51:43;;;;;;;5.33;1.97;;;;;;;7.45;100.00;95356.13;5062004;28;20200;-70
2022/11/21 09:54:17;;;;;;;3.27;1.30;;;;;;;7.43;100.00;95352.91;5057981;28;20223;-70
2022/11/21 09:56:44;;;;;;;1.53;1.00;;;;;;;7.42;99.78;95350.44;5058619;28;20200;-70
2022/11/21 09:59:29;;;;;;;2.37;1.10;;;;;;;7.55;98.54;95353.28;5059970;28;20231;-70
2022/11/21 10:01:56;;;;;;;3.50;0.87;;;;;;;7.34;97.02;95343.50;5065027;28;20269;-70
2022/11/21 10:04:22;;;;;;;2.97;1.47;;;;;;;7.47;96.66;95343.69;5057406;28;20308;-70
2022/11/21 10:06:57;;;;;;;3.73;1.23;;;;;;;7.60;96.52;95343.88;5056580;28;20204;-70
2022/11/21 10:09:34;;;;;;;5.10;1.03;;;;;;;7.74;96.81;95343.06;5056639;28;20223;-70
2022/11/21 10:15:04;;;;;;;2.23;1.27;;;;;;;8.01;96.45;95337.94;5057209;28;20368;-70
2022/11/21 10:17:46;;;;;;;3.10;1.10;;;;;;;8.01;94.45;95335.34;5057499;28;20204;-70
2022/11/21 10:20:27;;;;;;;5.73;1.43;;;;;;;7.97;95.86;95328.03;5064109;28;20200;-70
2022/11/21 10:23:08;;;;;;;2.60;1.10;;;;;;;7.78;95.23;95327.75;5057007;28;20211;-70
2022/11/21 10:25:37;;;;;;;2.53;1.10;;;;;;;8.09;95.49;95329.16;5062626;28;20640;-70
2022/11/21 10:28:08;;;;;;;4.30;1.30;;;;;;;8.14;94.45;95326.84;5057221;28;20645;-70
2022/11/21 10:30:42;;;;;;;3.00;0.87;;;;;;;8.08;90.55;95319.66;5057239;28;20360;-70
2022/11/21 10:33:15;;;;;;;1.67;0.63;;;;;;;8.14;91.29;95308.47;5058770;28;20724;-70
2022/11/21 10:35:47;;;;;;;1.80;0.93;;;;;;;8.43;90.52;95300.53;5061473;28;20212;-70
2022/11/21 10:38:21;;;;;;;6.23;1.20;;;;;;;8.59;88.52;95291.41;5056814;28;20223;-70
2022/11/21 10:40:51;;;;;;;3.00;1.23;;;;;;;8.61;89.78;95289.38;5057108;28;20196;-70
2022/11/21 10:46:13;;;;;;;3.63;1.17;;;;;;;8.61;87.10;95286.75;5056871;28;20235;-71
2022/11/21 10:48:40;;;;;;;4.40;0.90;;;;;;;8.63;87.85;95281.31;5062928;28;20494;-71
2022/11/21 10:51:27;;;;;;;3.73;0.93;;;;;;;8.83;87.46;95277.88;5057328;28;20200;-71
2022/11/21 10:56:50;;;;;;;1.73;0.90;;;;;;;8.49;89.99;95272.53;5056388;28;20650;-70
2022/11/21 10:59:24;;;;;;;2.77;1.27;;;;;;;8.69;90.22;95265.66;5063796;28;20392;-71
2022/11/21 11:01:58;;;;;;;1.13;0.80;;;;;;;8.59;89.22;95266.94;5057512;28;20291;-71
2022/11/21 11:04:26;;;;;;;2.10;1.03;;;;;;;8.79;88.87;95260.88;5055089;28;20220;-71
2022/11/21 11:06:53;;;;;;;1.47;1.00;;;;;;;8.96;88.85;95258.78;5061917;28;20208;-71
2022/11/21 11:09:29;;;;;;;2.50;1.00;;;;;;;8.80;85.94;95243.31;5064484;28;20576;-71
2022/11/21 11:15:20;;;;;;;2.77;1.23;;;;;;;8.55;87.16;95250.78;5056677;28;20223;-71
2022/11/21 11:17:53;;;;;;;4.50;1.47;;;;;;;8.50;87.54;95240.03;5056687;28;20220;-71
2022/11/21 11:20:35;;;;;;;2.30;0.90;;;;;;;8.59;88.03;95232.81;5055975;28;20354;-71
2022/11/21 11:23:16;;;;;;;4.43;1.80;;;;;;;8.70;87.55;95233.13;5055603;28;20211;-71
2022/11/21 11:25:47;;;;;;;4.70;1.17;;;;;;;8.58;86.70;95242.50;5056711;28;20227;-70
2022/11/21 11:28:13;;;;;;;2.20;0.90;;;;;;;8.67;86.63;95235.31;5056259;28;20238;-70
2022/11/21 11:30:40;;;;;;;1.23;0.90;;;;;;;8.29;86.12;95230.53;5056305;28;20219;-71
2022/11/21 11:33:34;;;;;;;1.90;0.93;;;;;;;8.65;86.35;95222.38;5056059;28;20567;-70
2022/11/21 11:36:11;;;;;;;4.53;0.80;;;;;;;8.93;85.38;95225.03;5055832;28;20260;-71
2022/11/21 11:38:38;;;;;;;1.87;0.67;;;;;;;8.80;82.76;95215.22;5056666;28;20231;-71
2022/11/21 11:41:13;;;;;;;5.43;1.30;;;;;;;9.03;84.17;95205.28;5056537;28;20568;-71
2022/11/21 11:50:12;;;;;;;2.70;1.27;;;;;;;8.91;81.95;95185.81;4962063;28;20342;-71
2022/11/21 11:52:48;;;;;;;3.37;0.77;;;;;;;8.88;82.24;95180.91;5043103;28;20212;-71
2022/11/21 11:55:20;;;;;;;1.60;0.97;;;;;;;8.58;82.11;95174.25;5056374;28;20203;-70
2022/11/21 11:57:49;;;;;;;3.03;1.00;;;;;;;8.73;80.62;95163.66;5056284;28;20224;-71
2022/11/21 12:00:27;;;;;;;0.70;0.63;;;;;;;8.97;81.09;95169.25;5059212;28;20208;-71
2022/11/21 12:03:01;;;;;;;1.03;0.80;;;;;;;9.00;79.14;95168.88;5058752;28;20784;-71
2022/11/21 12:05:31;;;;;;;4.60;0.97;;;;;;;8.71;79.32;95158.59;5055748;28;20227;-71
2022/11/21 12:08:14;;;;;;;1.67;1.00;;;;;;;8.64;78.78;95147.25;5051973;28;20229;-71
2022/11/21 12:13:28;;;;;;;2.50;0.67;;;;;;;8.73;78.21;95146.09;5054823;28;20655;-71
2022/11/21 12:15:59;;;;;;;1.57;0.97;;;;;;;8.81;78.19;95143.31;5055640;28;20207;-70
2022/11/21 12:18:33;;;;;;;0.40;0.40;;;;;;;8.65;80.19;95132.28;5055936;28;20229;-70